Time;durP1;ratioP1;P1;durP2;ratioP2;P2;SDS_P1;SDS_P2;PMS_P1;PMS_P2;Temp;Humidity;BMP_temperature;BMP_pressure;BME280_temperature;BME280_humidity;BME280_pressure;Samples;Min_cycle;Max_cycle;Signal;HPM_P1;HPM_P2
2022/03/02 00:01:24;;;;;;;;;;;;;;;;;;5048277;28;83532;-56
2022/03/02 00:03:50;;;;;;;;;;;;;;;;;;5049035;28;81857;-53
2022/03/02 00:06:17;;;;;;;;;;;;;;;;;;5048649;28;82318;-54
2022/03/02 00:08:43;;;;;;;;;;;;;;;;;;5048391;28;83361;-55
2022/03/02 00:11:10;;;;;;;;;;;;;;;;;;5051722;27;81095;-54
2022/03/02 00:13:36;;;;;;;;;;;;;;;;;;5048740;28;83497;-54
2022/03/02 00:16:01;;;;;;;;;;;;;;;;;;5051844;28;81796;-54
2022/03/02 00:18:27;;;;;;;;;;;;;;;;;;5051538;27;82816;-56
2022/03/02 00:20:53;;;;;;;;;;;;;;;;;;5051840;28;82690;-55
2022/03/02 00:23:19;;;;;;;;;;;;;;;;;;5052102;28;81784;-55
2022/03/02 00:25:45;;;;;;;;;;;;;;;;;;5051817;27;82782;-57
2022/03/02 00:28:11;;;;;;;;;;;;;;;;;;5051565;28;83304;-54
2022/03/02 00:30:37;;;;;;;;;;;;;;;;;;5054640;28;81819;-54
2022/03/02 00:33:03;;;;;;;;;;;;;;;;;;5051460;28;82504;-58
2022/03/02 00:35:29;;;;;;;;;;;;;;;;;;5052185;28;81155;-58
2022/03/02 00:37:55;;;;;;;;;;;;;;;;;;5051775;27;81831;-58
2022/03/02 00:40:20;;;;;;;;;;;;;;;;;;5051477;28;82294;-57
2022/03/02 00:42:47;;;;;;;;;;;;;;;;;;5050915;27;82687;-56
2022/03/02 00:45:12;;;;;;;;;;;;;;;;;;5051566;27;82436;-56
2022/03/02 00:47:38;;;;;;;;;;;;;;;;;;5051538;28;81705;-57
2022/03/02 00:50:04;;;;;;;;;;;;;;;;;;5053625;28;82039;-58
2022/03/02 00:52:30;;;;;;;;;;;;;;;;;;5053889;27;82521;-57
2022/03/02 00:54:56;;;;;;;;;;;;;;;;;;5051421;28;81825;-54
2022/03/02 00:57:22;;;;;;;;;;;;;;;;;;5051627;27;81785;-58
2022/03/02 00:59:48;;;;;;;;;;;;;;;;;;5051615;28;81689;-58
2022/03/02 01:02:14;;;;;;;;;;;;;;;;;;5051273;28;82002;-58
2022/03/02 01:04:40;;;;;;;;;;;;;;;;;;5051245;27;82534;-56
2022/03/02 01:07:06;;;;;;;;;;;;;;;;;;5050329;28;84494;-57
2022/03/02 01:09:32;;;;;;;;;;;;;;;;;;5051194;28;81779;-58
2022/03/02 01:11:58;;;;;;;;;;;;;;;;;;5051022;27;81760;-54
2022/03/02 01:14:24;;;;;;;;;;;;;;;;;;5053639;28;83467;-54
2022/03/02 01:16:50;;;;;;;;;;;;;;;;;;5051054;28;82618;-53
2022/03/02 01:19:15;;;;;;;;;;;;;;;;;;5050787;28;83364;-54
2022/03/02 01:21:41;;;;;;;;;;;;;;;;;;5050928;28;81836;-53
2022/03/02 01:24:08;;;;;;;;;;;;;;;;;;5051516;27;82522;-55
2022/03/02 01:26:36;;;;;;;;;;;;;;;;;;5050445;27;82260;-55
2022/03/02 01:29:02;;;;;;;;;;;;;;;;;;5050805;28;81856;-56
2022/03/02 01:31:28;;;;;;;;;;;;;;;;;;5050098;27;82739;-58
2022/03/02 01:33:54;;;;;;;;;;;;;;;;;;5050473;28;83349;-58
2022/03/02 01:36:20;;;;;;;;;;;;;;;;;;5053427;28;81812;-56
2022/03/02 01:38:46;;;;;;;;;;;;;;;;;;5050499;28;83532;-56
2022/03/02 01:41:12;;;;;;;;;;;;;;;;;;5050649;28;81829;-55
2022/03/02 01:43:38;;;;;;;;;;;;;;;;;;5050579;27;82580;-54
2022/03/02 01:46:04;;;;;;;;;;;;;;;;;;5050293;28;83322;-54
2022/03/02 01:48:30;;;;;;;;;;;;;;;;;;5051240;28;81122;-54
2022/03/02 01:50:55;;;;;;;;;;;;;;;;;;5049297;28;82069;-54
2022/03/02 01:53:21;;;;;;;;;;;;;;;;;;5050419;28;83375;-53
2022/03/02 01:55:47;;;;;;;;;;;;;;;;;;5050008;28;82804;-56
2022/03/02 01:58:13;;;;;;;;;;;;;;;;;;5053213;27;82322;-55
2022/03/02 02:00:39;;;;;;;;;;;;;;;;;;5050352;28;81780;-54
2022/03/02 02:03:05;;;;;;;;;;;;;;;;;;5050236;27;82540;-55
2022/03/02 02:05:31;;;;;;;;;;;;;;;;;;5050054;28;82521;-53
2022/03/02 02:07:57;;;;;;;;;;;;;;;;;;5050547;28;81815;-54
2022/03/02 02:10:23;;;;;;;;;;;;;;;;;;5050206;27;81989;-55
2022/03/02 02:12:48;;;;;;;;;;;;;;;;;;5052857;28;81609;-58
2022/03/02 02:15:14;;;;;;;;;;;;;;;;;;5050424;27;81991;-53
2022/03/02 02:17:43;;;;;;;;;;;;;;;;;;5052689;27;82685;-53
2022/03/02 02:20:09;;;;;;;;;;;;;;;;;;5049460;28;82718;-54
2022/03/02 02:22:35;;;;;;;;;;;;;;;;;;5049955;27;83732;-54
2022/03/02 02:25:01;;;;;;;;;;;;;;;;;;5049780;28;83254;-58
2022/03/02 02:27:27;;;;;;;;;;;;;;;;;;5049880;28;81806;-55
2022/03/02 02:29:53;;;;;;;;;;;;;;;;;;5050203;27;81683;-56
2022/03/02 02:32:19;;;;;;;;;;;;;;;;;;5049823;28;82541;-53
2022/03/02 02:34:45;;;;;;;;;;;;;;;;;;5049881;28;81856;-54
2022/03/02 02:37:11;;;;;;;;;;;;;;;;;;5049627;27;82213;-54
2022/03/02 02:39:36;;;;;;;;;;;;;;;;;;5052619;28;83546;-53
2022/03/02 02:42:02;;;;;;;;;;;;;;;;;;5050177;27;81763;-54
2022/03/02 02:44:28;;;;;;;;;;;;;;;;;;5049130;28;83950;-53
2022/03/02 02:46:54;;;;;;;;;;;;;;;;;;5049619;28;81829;-54
2022/03/02 02:49:20;;;;;;;;;;;;;;;;;;5049301;27;81760;-54
2022/03/02 02:51:46;;;;;;;;;;;;;;;;;;5049266;28;82548;-56
2022/03/02 02:54:12;;;;;;;;;;;;;;;;;;5049791;28;81821;-54
2022/03/02 02:56:38;;;;;;;;;;;;;;;;;;5049485;27;82749;-55
2022/03/02 02:59:04;;;;;;;;;;;;;;;;;;5049564;28;81690;-54
2022/03/02 03:01:30;;;;;;;;;;;;;;;;;;5052747;28;81096;-55
2022/03/02 03:03:56;;;;;;;;;;;;;;;;;;5049279;28;83466;-56
2022/03/02 03:06:23;;;;;;;;;;;;;;;;;;5049293;28;81827;-54
2022/03/02 03:08:48;;;;;;;;;;;;;;;;;;5049067;27;83012;-54
2022/03/02 03:11:14;;;;;;;;;;;;;;;;;;5049142;28;82563;-54
2022/03/02 03:13:40;;;;;;;;;;;;;;;;;;5049620;28;81749;-54
2022/03/02 03:16:07;;;;;;;;;;;;;;;;;;5049318;27;82557;-53
2022/03/02 03:18:33;;;;;;;;;;;;;;;;;;5049034;28;82557;-54
2022/03/02 03:20:59;;;;;;;;;;;;;;;;;;5049450;28;81824;-54
2022/03/02 03:23:25;;;;;;;;;;;;;;;;;;5051792;27;82600;-53
2022/03/02 03:25:51;;;;;;;;;;;;;;;;;;5049546;28;81116;-53
2022/03/02 03:28:17;;;;;;;;;;;;;;;;;;5049176;27;81816;-53
2022/03/02 03:30:43;;;;;;;;;;;;;;;;;;5048779;28;82311;-53
2022/03/02 03:33:09;;;;;;;;;;;;;;;;;;5048146;27;82942;-54
2022/03/02 03:35:35;;;;;;;;;;;;;;;;;;5050417;27;83547;-54
2022/03/02 03:38:01;;;;;;;;;;;;;;;;;;5049707;28;82530;-53
2022/03/02 03:40:27;;;;;;;;;;;;;;;;;;5049130;28;81870;-54
2022/03/02 03:42:53;;;;;;;;;;;;;;;;;;5049289;27;81781;-53
2022/03/02 03:45:18;;;;;;;;;;;;;;;;;;5051579;28;83373;-53
2022/03/02 03:47:44;;;;;;;;;;;;;;;;;;5048946;27;82266;-53
2022/03/02 03:50:10;;;;;;;;;;;;;;;;;;5051612;28;82689;-53
2022/03/02 03:52:36;;;;;;;;;;;;;;;;;;5052267;28;81879;-54
2022/03/02 03:55:02;;;;;;;;;;;;;;;;;;5052322;27;81853;-53
2022/03/02 03:57:28;;;;;;;;;;;;;;;;;;5051674;28;82659;-53
2022/03/02 03:59:54;;;;;;;;;;;;;;;;;;5052199;28;81881;-53
2022/03/02 04:02:20;;;;;;;;;;;;;;;;;;5052253;27;82480;-53
2022/03/02 04:04:46;;;;;;;;;;;;;;;;;;5051950;28;83734;-53
2022/03/02 04:07:12;;;;;;;;;;;;;;;;;;5055506;28;82144;-53
2022/03/02 04:09:37;;;;;;;;;;;;;;;;;;5052187;28;82408;-53
2022/03/02 04:12:03;;;;;;;;;;;;;;;;;;5052265;28;81882;-54
2022/03/02 04:14:29;;;;;;;;;;;;;;;;;;5052887;27;81019;-59
2022/03/02 04:16:56;;;;;;;;;;;;;;;;;;5052066;28;82788;-57
2022/03/02 04:19:22;;;;;;;;;;;;;;;;;;5052277;28;82089;-55
2022/03/02 04:21:47;;;;;;;;;;;;;;;;;;5051671;27;82701;-57
2022/03/02 04:24:13;;;;;;;;;;;;;;;;;;5051721;28;83159;-58
2022/03/02 04:26:39;;;;;;;;;;;;;;;;;;5054526;28;81854;-54
2022/03/02 04:29:05;;;;;;;;;;;;;;;;;;5050530;28;85088;-53
2022/03/02 04:31:31;;;;;;;;;;;;;;;;;;5051898;28;81883;-53
2022/03/02 04:33:57;;;;;;;;;;;;;;;;;;5052035;27;81735;-53
2022/03/02 04:36:23;;;;;;;;;;;;;;;;;;5051502;28;83217;-55
2022/03/02 04:38:49;;;;;;;;;;;;;;;;;;5052212;28;81092;-54
2022/03/02 04:41:15;;;;;;;;;;;;;;;;;;5051632;27;81768;-53
2022/03/02 04:43:41;;;;;;;;;;;;;;;;;;5051424;28;83304;-57
2022/03/02 04:46:07;;;;;;;;;;;;;;;;;;5051057;28;83111;-55
2022/03/02 04:48:32;;;;;;;;;;;;;;;;;;5054156;28;82545;-55
2022/03/02 04:50:58;;;;;;;;;;;;;;;;;;5051505;28;81847;-53
2022/03/02 04:53:24;;;;;;;;;;;;;;;;;;5051372;27;81821;-52
2022/03/02 04:55:50;;;;;;;;;;;;;;;;;;5051317;28;82544;-52
2022/03/02 04:58:16;;;;;;;;;;;;;;;;;;5051482;28;81808;-52
2022/03/02 05:00:42;;;;;;;;;;;;;;;;;;5053318;27;81715;-52
2022/03/02 05:03:08;;;;;;;;;;;;;;;;;;5051872;28;81597;-52
2022/03/02 05:05:34;;;;;;;;;;;;;;;;;;5051449;28;81764;-53
2022/03/02 05:08:00;;;;;;;;;;;;;;;;;;5051229;27;82556;-52
2022/03/02 05:10:26;;;;;;;;;;;;;;;;;;5053051;28;84529;-53
2022/03/02 05:12:52;;;;;;;;;;;;;;;;;;5050986;27;83406;-53
2022/03/02 05:15:19;;;;;;;;;;;;;;;;;;5050821;28;83420;-53
2022/03/02 05:17:45;;;;;;;;;;;;;;;;;;5051208;28;81870;-53
2022/03/02 05:20:11;;;;;;;;;;;;;;;;;;5051013;27;81761;-52
2022/03/02 05:22:36;;;;;;;;;;;;;;;;;;5050717;28;83455;-53
2022/03/02 05:25:02;;;;;;;;;;;;;;;;;;5050866;28;81863;-52
2022/03/02 05:27:28;;;;;;;;;;;;;;;;;;5051343;27;82480;-52
2022/03/02 05:29:54;;;;;;;;;;;;;;;;;;5050741;28;82331;-52
2022/03/02 05:32:20;;;;;;;;;;;;;;;;;;5053441;28;81803;-52
2022/03/02 05:34:46;;;;;;;;;;;;;;;;;;5050111;28;82716;-52
2022/03/02 05:37:12;;;;;;;;;;;;;;;;;;5050706;28;81907;-52
2022/03/02 05:39:38;;;;;;;;;;;;;;;;;;5050754;27;81793;-53
2022/03/02 05:42:04;;;;;;;;;;;;;;;;;;5050689;28;81808;-53
2022/03/02 05:44:29;;;;;;;;;;;;;;;;;;5050923;28;81817;-53
2022/03/02 05:46:55;;;;;;;;;;;;;;;;;;5050562;27;81850;-52
2022/03/02 05:49:21;;;;;;;;;;;;;;;;;;5050017;28;83623;-53
2022/03/02 05:51:47;;;;;;;;;;;;;;;;;;5050841;28;81221;-54
2022/03/02 05:54:13;;;;;;;;;;;;;;;;;;5052971;27;81778;-52
2022/03/02 05:56:39;;;;;;;;;;;;;;;;;;5050411;28;81745;-53
2022/03/02 05:59:05;;;;;;;;;;;;;;;;;;5050023;27;82704;-52
2022/03/02 06:01:31;;;;;;;;;;;;;;;;;;5050394;28;82220;-52
2022/03/02 06:03:57;;;;;;;;;;;;;;;;;;5050194;28;81808;-52
2022/03/02 06:06:23;;;;;;;;;;;;;;;;;;5050251;28;82435;-52
2022/03/02 06:08:50;;;;;;;;;;;;;;;;;;5050027;27;82524;-53
2022/03/02 06:11:15;;;;;;;;;;;;;;;;;;5049446;28;81772;-52
2022/03/02 06:13:41;;;;;;;;;;;;;;;;;;5050026;27;82423;-53
2022/03/02 06:16:07;;;;;;;;;;;;;;;;;;5053094;28;81850;-52
2022/03/02 06:18:33;;;;;;;;;;;;;;;;;;5050192;27;81767;-53
2022/03/02 06:21:02;;;;;;;;;;;;;;;;;;5049950;28;82457;-52
2022/03/02 06:23:28;;;;;;;;;;;;;;;;;;5050271;28;83058;-53
2022/03/02 06:25:54;;;;;;;;;;;;;;;;;;5051881;27;82905;-52
2022/03/02 06:28:20;;;;;;;;;;;;;;;;;;5049718;28;82406;-54
2022/03/02 06:30:45;;;;;;;;;;;;;;;;;;5049767;28;81793;-53
2022/03/02 06:33:11;;;;;;;;;;;;;;;;;;5050058;27;81772;-53
2022/03/02 06:35:37;;;;;;;;;;;;;;;;;;5052263;28;83551;-53
2022/03/02 06:38:03;;;;;;;;;;;;;;;;;;5049788;27;81802;-53
2022/03/02 06:40:29;;;;;;;;;;;;;;;;;;5050046;28;81860;-53
2022/03/02 06:43:02;;;;;;;;;;;;;;;;;;5049688;28;81825;-52
2022/03/02 06:45:27;;;;;;;;;;;;;;;;;;5049643;27;82461;-53
2022/03/02 06:47:53;;;;;;;;;;;;;;;;;;5048983;28;83306;-52
2022/03/02 06:50:19;;;;;;;;;;;;;;;;;;5049680;28;81785;-54
2022/03/02 06:52:45;;;;;;;;;;;;;;;;;;5049475;27;82613;-53
2022/03/02 06:55:11;;;;;;;;;;;;;;;;;;5049360;28;83525;-53
2022/03/02 06:57:37;;;;;;;;;;;;;;;;;;5052272;28;81840;-53
2022/03/02 07:00:03;;;;;;;;;;;;;;;;;;5049352;28;83529;-53
2022/03/02 07:02:29;;;;;;;;;;;;;;;;;;5049583;28;81845;-52
2022/03/02 07:04:55;;;;;;;;;;;;;;;;;;5050222;27;81285;-53
2022/03/02 07:07:20;;;;;;;;;;;;;;;;;;5049418;28;82354;-53
2022/03/02 07:09:46;;;;;;;;;;;;;;;;;;5049377;28;81787;-53
2022/03/02 07:12:12;;;;;;;;;;;;;;;;;;5048837;27;82737;-52
2022/03/02 07:14:40;;;;;;;;;;;;;;;;;;5049123;27;82576;-53
2022/03/02 07:17:06;;;;;;;;;;;;;;;;;;5049378;28;81767;-52
2022/03/02 07:19:32;;;;;;;;;;;;;;;;;;5051961;27;81798;-52
2022/03/02 07:21:57;;;;;;;;;;;;;;;;;;5049323;28;81797;-53
2022/03/02 07:24:23;;;;;;;;;;;;;;;;;;5052619;27;81777;-53
2022/03/02 07:26:49;;;;;;;;;;;;;;;;;;5049091;28;88303;-53
2022/03/02 07:29:15;;;;;;;;;;;;;;;;;;5050130;28;86079;-53
2022/03/02 07:31:41;;;;;;;;;;;;;;;;;;5049287;27;86935;-53
2022/03/02 07:34:07;;;;;;;;;;;;;;;;;;5048934;28;87583;-52
2022/03/02 07:36:33;;;;;;;;;;;;;;;;;;5048535;28;87782;-53
2022/03/02 07:38:59;;;;;;;;;;;;;;;;;;5049287;27;87473;-52
2022/03/02 07:41:25;;;;;;;;;;;;;;;;;;5051693;28;88715;-53
2022/03/02 07:43:52;;;;;;;;;;;;;;;;;;5049396;28;87375;-53
2022/03/02 07:46:18;;;;;;;;;;;;;;;;;;5048706;28;88332;-52
2022/03/02 07:48:44;;;;;;;;;;;;;;;;;;5050734;28;86827;-53
2022/03/02 07:51:10;;;;;;;;;;;;;;;;;;5049331;27;86823;-54
2022/03/02 07:53:36;;;;;;;;;;;;;;;;;;5048922;28;86857;-52
2022/03/02 07:56:04;;;;;;;;;;;;;;;;;;5049435;28;87091;-53
2022/03/02 07:58:29;;;;;;;;;;;;;;;;;;5049005;27;87595;-53
2022/03/02 08:00:55;;;;;;;;;;;;;;;;;;5047757;28;88537;-52
2022/03/02 08:03:21;;;;;;;;;;;;;;;;;;5052106;27;86884;-52
2022/03/02 08:05:47;;;;;;;;;;;;;;;;;;5048370;28;87436;-52
2022/03/02 08:08:13;;;;;;;;;;;;;;;;;;5048715;28;86858;-52
2022/03/02 08:10:42;;;;;;;;;;;;;;;;;;5049161;27;87162;-52
2022/03/02 08:13:08;;;;;;;;;;;;;;;;;;5048209;28;88385;-52
2022/03/02 08:15:34;;;;;;;;;;;;;;;;;;5048562;28;86806;-52
2022/03/02 08:18:00;;;;;;;;;;;;;;;;;;5049264;27;87323;-53
2022/03/02 08:20:26;;;;;;;;;;;;;;;;;;5048155;28;87722;-54
2022/03/02 08:22:52;;;;;;;;;;;;;;;;;;5048522;28;86909;-53
2022/03/02 08:25:18;;;;;;;;;;;;;;;;;;5050509;27;87741;-53
2022/03/02 08:27:44;;;;;;;;;;;;;;;;;;5048402;28;86808;-52
2022/03/02 08:30:10;;;;;;;;;;;;;;;;;;5048681;28;86880;-53
2022/03/02 08:32:37;;;;;;;;;;;;;;;;;;5047826;28;88866;-59
2022/03/02 08:35:03;;;;;;;;;;;;;;;;;;5047427;27;86849;-57
2022/03/02 08:37:29;;;;;;;;;;;;;;;;;;5048227;27;87592;-52
2022/03/02 08:39:55;;;;;;;;;;;;;;;;;;5048179;28;87553;-53
2022/03/02 08:42:21;;;;;;;;;;;;;;;;;;5048652;28;86151;-53
2022/03/02 08:44:47;;;;;;;;;;;;;;;;;;5050790;27;86853;-53
2022/03/02 08:47:13;;;;;;;;;;;;;;;;;;5048141;28;86924;-53
2022/03/02 08:49:39;;;;;;;;;;;;;;;;;;5047369;27;87834;-53
2022/03/02 08:52:05;;;;;;;;;;;;;;;;;;5047491;28;87681;-52
2022/03/02 08:54:31;;;;;;;;;;;;;;;;;;5048257;28;86857;-53
2022/03/02 08:56:56;;;;;;;;;;;;;;;;;;5048464;27;86845;-53
2022/03/02 08:59:22;;;;;;;;;;;;;;;;;;5047576;28;87522;-53
2022/03/02 09:01:48;;;;;;;;;;;;;;;;;;5048135;28;86885;-53
2022/03/02 09:04:16;;;;;;;;;;;;;;;;;;5047961;27;87271;-54
2022/03/02 09:06:42;;;;;;;;;;;;;;;;;;5050764;28;87770;-55
2022/03/02 09:09:07;;;;;;;;;;;;;;;;;;5047926;27;86868;-54
2022/03/02 09:11:33;;;;;;;;;;;;;;;;;;5047675;28;87967;-54
2022/03/02 09:13:59;;;;;;;;;;;;;;;;;;5049518;28;88108;-54
2022/03/02 09:16:25;;;;;;;;;;;;;;;;;;5047696;27;88393;-54
2022/03/02 09:18:51;;;;;;;;;;;;;;;;;;5047647;28;87114;-53
2022/03/02 09:21:17;;;;;;;;;;;;;;;;;;5047502;28;86914;-53
2022/03/02 09:23:43;;;;;;;;;;;;;;;;;;5047918;27;86901;-52
2022/03/02 09:26:09;;;;;;;;;;;;;;;;;;5047422;28;87336;-53
2022/03/02 09:28:35;;;;;;;;;;;;;;;;;;5050349;28;86828;-53
2022/03/02 09:31:02;;;;;;;;;;;;;;;;;;5047590;28;86863;-55
2022/03/02 09:33:28;;;;;;;;;;;;;;;;;;5047394;28;86849;-54
2022/03/02 09:35:54;;;;;;;;;;;;;;;;;;5047700;27;86855;-56
2022/03/02 09:38:20;;;;;;;;;;;;;;;;;;5046305;28;88532;-53
2022/03/02 09:40:46;;;;;;;;;;;;;;;;;;5047302;28;86826;-54
2022/03/02 09:43:12;;;;;;;;;;;;;;;;;;5047389;27;86830;-55
2022/03/02 09:45:38;;;;;;;;;;;;;;;;;;5046817;27;88635;-53
2022/03/02 09:48:04;;;;;;;;;;;;;;;;;;5047149;28;86844;-53
2022/03/02 09:50:33;;;;;;;;;;;;;;;;;;5049755;28;86954;-52
2022/03/02 09:52:59;;;;;;;;;;;;;;;;;;5047051;28;86786;-54
2022/03/02 09:55:25;;;;;;;;;;;;;;;;;;5047525;27;86679;-53
2022/03/02 09:57:51;;;;;;;;;;;;;;;;;;5046588;28;88551;-53
2022/03/02 10:00:18;;;;;;;;;;;;;;;;;;5047067;28;86770;-53
2022/03/02 10:02:44;;;;;;;;;;;;;;;;;;5046362;27;87992;-58
2022/03/02 10:05:10;;;;;;;;;;;;;;;;;;5046602;28;88341;-53
2022/03/02 10:07:36;;;;;;;;;;;;;;;;;;5047021;28;86849;-58
2022/03/02 10:10:02;;;;;;;;;;;;;;;;;;5046908;28;87502;-57
2022/03/02 10:12:28;;;;;;;;;;;;;;;;;;5049457;28;87424;-53
2022/03/02 10:14:54;;;;;;;;;;;;;;;;;;5046786;27;87446;-56
2022/03/02 10:17:20;;;;;;;;;;;;;;;;;;5046295;27;87711;-56
2022/03/02 10:19:46;;;;;;;;;;;;;;;;;;5047171;28;86078;-56
2022/03/02 10:22:12;;;;;;;;;;;;;;;;;;5046749;27;86816;-55
2022/03/02 10:24:38;;;;;;;;;;;;;;;;;;5046239;28;88564;-54
2022/03/02 10:27:04;;;;;;;;;;;;;;;;;;5045841;28;87721;-56
2022/03/02 10:29:31;;;;;;;;;;;;;;;;;;5046531;27;88362;-56
2022/03/02 10:31:57;;;;;;;;;;;;;;;;;;5046035;28;88438;-55
2022/03/02 10:34:23;;;;;;;;;;;;;;;;;;5049509;28;86850;-55
2022/03/02 10:36:50;;;;;;;;;;;;;;;;;;5048534;28;88708;-56
2022/03/02 10:39:16;;;;;;;;;;;;;;;;;;5046384;28;86887;-57
2022/03/02 10:41:43;;;;;;;;;;;;;;;;;;5046605;27;86858;-54
2022/03/02 10:44:09;;;;;;;;;;;;;;;;;;5046497;28;88028;-56
2022/03/02 10:46:35;;;;;;;;;;;;;;;;;;5046254;28;86818;-55
2022/03/02 10:49:01;;;;;;;;;;;;;;;;;;5046156;27;87500;-53
2022/03/02 10:51:27;;;;;;;;;;;;;;;;;;5045149;28;89198;-53
2022/03/02 10:53:53;;;;;;;;;;;;;;;;;;5049357;28;87094;-53
2022/03/02 10:56:19;;;;;;;;;;;;;;;;;;5046063;28;86836;-53
2022/03/02 10:58:45;;;;;;;;;;;;;;;;;;5045608;28;86788;-56
2022/03/02 11:01:11;;;;;;;;;;;;;;;;;;5046387;27;86795;-53
2022/03/02 11:03:37;;;;;;;;;;;;;;;;;;5045966;28;87429;-53
2022/03/02 11:06:03;;;;;;;;;;;;;;;;;;5045960;28;86872;-54
2022/03/02 11:08:29;;;;;;;;;;;;;;;;;;5046508;28;87612;-55
2022/03/02 11:10:55;;;;;;;;;;;;;;;;;;5045541;28;89003;-52
2022/03/02 11:13:21;;;;;;;;;;;;;;;;;;5045855;28;86754;-54
2022/03/02 11:15:46;;;;;;;;;;;;;;;;;;5047892;27;87750;-52
2022/03/02 11:18:16;;;;;;;;;;;;;;;;;;5045777;28;86841;-53
2022/03/02 11:20:42;;;;;;;;;;;;;;;;;;5045941;27;86825;-53
2022/03/02 11:23:08;;;;;;;;;;;;;;;;;;5045431;28;88516;-53
2022/03/02 11:25:34;;;;;;;;;;;;;;;;;;5046088;28;86901;-53
2022/03/02 11:28:00;;;;;;;;;;;;;;;;;;5045786;27;86838;-54
2022/03/02 11:30:25;;;;;;;;;;;;;;;;;;5045689;28;87436;-54
2022/03/02 11:32:51;;;;;;;;;;;;;;;;;;5046033;28;86100;-53
2022/03/02 11:35:17;;;;;;;;;;;;;;;;;;5045932;27;87203;-54
2022/03/02 11:37:43;;;;;;;;;;;;;;;;;;5048190;28;88233;-54
2022/03/02 11:40:09;;;;;;;;;;;;;;;;;;5045057;27;87812;-56
2022/03/02 11:42:37;;;;;;;;;;;;;;;;;;5045421;28;87418;-54
2022/03/02 11:45:03;;;;;;;;;;;;;;;;;;5045555;27;86880;-53
2022/03/02 11:47:29;;;;;;;;;;;;;;;;;;5045525;27;86801;-54
2022/03/02 11:49:55;;;;;;;;;;;;;;;;;;5044789;28;88580;-57
2022/03/02 11:52:21;;;;;;;;;;;;;;;;;;5045363;28;86860;-57
2022/03/02 11:54:47;;;;;;;;;;;;;;;;;;5045852;27;86805;-53
2022/03/02 11:57:13;;;;;;;;;;;;;;;;;;5048109;28;86598;-54
2022/03/02 11:59:39;;;;;;;;;;;;;;;;;;5048434;28;86839;-54
2022/03/02 12:02:05;;;;;;;;;;;;;;;;;;5044887;28;88402;-55
2022/03/02 12:04:31;;;;;;;;;;;;;;;;;;5044754;28;87843;-54
2022/03/02 12:06:57;;;;;;;;;;;;;;;;;;5045291;27;87891;-53
2022/03/02 12:09:23;;;;;;;;;;;;;;;;;;5045282;27;87352;-56
2022/03/02 12:11:49;;;;;;;;;;;;;;;;;;5048851;28;86896;-54
2022/03/02 12:14:15;;;;;;;;;;;;;;;;;;5048740;28;86817;-54
2022/03/02 12:16:41;;;;;;;;;;;;;;;;;;5048292;28;88414;-53
2022/03/02 12:19:07;;;;;;;;;;;;;;;;;;5048460;28;86851;-55
2022/03/02 12:21:33;;;;;;;;;;;;;;;;;;5051846;27;86269;-54
2022/03/02 12:24:00;;;;;;;;;;;;;;;;;;5048477;28;86956;-53
2022/03/02 12:26:26;;;;;;;;;;;;;;;;;;5048597;27;86799;-54
2022/03/02 12:28:52;;;;;;;;;;;;;;;;;;5047378;28;89572;-55
2022/03/02 12:31:18;;;;;;;;;;;;;;;;;;5048388;28;86847;-53
2022/03/02 12:33:44;;;;;;;;;;;;;;;;;;5048430;27;87561;-54
2022/03/02 12:36:10;;;;;;;;;;;;;;;;;;5048113;28;87978;-53
2022/03/02 12:38:36;;;;;;;;;;;;;;;;;;5048329;28;86768;-54
2022/03/02 12:41:02;;;;;;;;;;;;;;;;;;5051123;27;86879;-53
2022/03/02 12:43:29;;;;;;;;;;;;;;;;;;5048425;28;86895;-54
2022/03/02 12:45:56;;;;;;;;;;;;;;;;;;5048639;27;87289;-54
2022/03/02 12:48:21;;;;;;;;;;;;;;;;;;5047834;28;87624;-54
2022/03/02 12:50:47;;;;;;;;;;;;;;;;;;5048043;28;86831;-55
2022/03/02 12:53:13;;;;;;;;;;;;;;;;;;5047240;28;88112;-55
2022/03/02 12:55:42;;;;;;;;;;;;;;;;;;5047922;28;87241;-54
2022/03/02 12:58:08;;;;;;;;;;;;;;;;;;5048011;28;86839;-54
2022/03/02 13:00:34;;;;;;;;;;;;;;;;;;5048254;27;86850;-56
2022/03/02 13:03:00;;;;;;;;;;;;;;;;;;5050715;28;86991;-53
2022/03/02 13:05:26;;;;;;;;;;;;;;;;;;5048304;27;86828;-53
2022/03/02 13:07:52;;;;;;;;;;;;;;;;;;5047671;28;88627;-53
2022/03/02 13:10:17;;;;;;;;;;;;;;;;;;5048639;28;86042;-54
2022/03/02 13:12:48;;;;;;;;;;;;;;;;;;5047734;27;86839;-53
2022/03/02 13:15:14;;;;;;;;;;;;;;;;;;5047352;28;88642;-53
2022/03/02 13:17:40;;;;;;;;;;;;;;;;;;5049304;28;88155;-53
2022/03/02 13:20:06;;;;;;;;;;;;;;;;;;5047824;28;88519;-54
2022/03/02 13:22:31;;;;;;;;;;;;;;;;;;5047183;27;87342;-55
2022/03/02 13:24:57;;;;;;;;;;;;;;;;;;5050530;28;86784;-56
2022/03/02 13:27:23;;;;;;;;;;;;;;;;;;5047147;28;88371;-56
2022/03/02 13:29:49;;;;;;;;;;;;;;;;;;5047573;28;86823;-53
2022/03/02 13:32:15;;;;;;;;;;;;;;;;;;5047595;27;86834;-53
2022/03/02 13:34:41;;;;;;;;;;;;;;;;;;5048057;27;86093;-53
2022/03/02 13:37:07;;;;;;;;;;;;;;;;;;5047402;28;86792;-53
2022/03/02 13:39:33;;;;;;;;;;;;;;;;;;5047353;27;86847;-54
2022/03/02 13:41:59;;;;;;;;;;;;;;;;;;5046616;28;87810;-56
2022/03/02 13:44:25;;;;;;;;;;;;;;;;;;5047482;28;87275;-54
2022/03/02 13:46:51;;;;;;;;;;;;;;;;;;5049822;28;87479;-54
2022/03/02 13:49:16;;;;;;;;;;;;;;;;;;5047260;28;86991;-54
2022/03/02 13:51:42;;;;;;;;;;;;;;;;;;5047136;27;87471;-54
2022/03/02 13:54:08;;;;;;;;;;;;;;;;;;5047048;28;86762;-53
2022/03/02 13:56:34;;;;;;;;;;;;;;;;;;5047050;28;86836;-53
2022/03/02 13:59:00;;;;;;;;;;;;;;;;;;5047589;28;86569;-54
2022/03/02 14:01:27;;;;;;;;;;;;;;;;;;5046869;28;86879;-54
2022/03/02 14:03:53;;;;;;;;;;;;;;;;;;5047007;28;86928;-56
2022/03/02 14:06:19;;;;;;;;;;;;;;;;;;5046368;27;87682;-54
2022/03/02 14:08:45;;;;;;;;;;;;;;;;;;5049430;28;88405;-56
2022/03/02 14:11:11;;;;;;;;;;;;;;;;;;5046839;27;87585;-54
2022/03/02 14:13:37;;;;;;;;;;;;;;;;;;5046730;28;86806;-53
2022/03/02 14:16:04;;;;;;;;;;;;;;;;;;5046661;28;86827;-54
2022/03/02 14:18:30;;;;;;;;;;;;;;;;;;5046770;27;87255;-54
2022/03/02 14:20:56;;;;;;;;;;;;;;;;;;5046268;28;87588;-53
2022/03/02 14:23:21;;;;;;;;;;;;;;;;;;5047134;28;86076;-54
2022/03/02 14:25:47;;;;;;;;;;;;;;;;;;5046998;27;86838;-53
2022/03/02 14:28:14;;;;;;;;;;;;;;;;;;5046463;28;87337;-56
2022/03/02 14:30:40;;;;;;;;;;;;;;;;;;5048887;28;87828;-54
2022/03/02 14:33:06;;;;;;;;;;;;;;;;;;5045168;27;88306;-53
2022/03/02 14:35:32;;;;;;;;;;;;;;;;;;5046625;28;86815;-54
2022/03/02 14:37:58;;;;;;;;;;;;;;;;;;5049125;27;86876;-54
2022/03/02 14:40:24;;;;;;;;;;;;;;;;;;5046045;28;87424;-53
2022/03/02 14:42:50;;;;;;;;;;;;;;;;;;5046406;28;86892;-54
2022/03/02 14:45:16;;;;;;;;;;;;;;;;;;5047150;27;86936;-53
2022/03/02 14:47:42;;;;;;;;;;;;;;;;;;5046554;28;87479;-54
2022/03/02 14:50:07;;;;;;;;;;;;;;;;;;5048638;28;86853;-56
2022/03/02 14:52:35;;;;;;;;;;;;;;;;;;5045737;28;88808;-53
2022/03/02 14:55:01;;;;;;;;;;;;;;;;;;5045543;28;87825;-54
2022/03/02 14:57:27;;;;;;;;;;;;;;;;;;5046207;27;88049;-55
2022/03/02 14:59:53;;;;;;;;;;;;;;;;;;5045800;28;88279;-56
2022/03/02 15:02:19;;;;;;;;;;;;;;;;;;5046280;28;86817;-53
2022/03/02 15:04:44;;;;;;;;;;;;;;;;;;5046090;27;87560;-57
2022/03/02 15:07:12;;;;;;;;;;;;;;;;;;5045979;28;87408;-56
2022/03/02 15:09:38;;;;;;;;;;;;;;;;;;5046111;28;86836;-58
2022/03/02 15:12:04;;;;;;;;;;;;;;;;;;5049127;27;86089;-57
2022/03/02 15:17:14;;;;;;;;;;;;;;;;;;5043020;28;86813;-54
2022/03/02 15:19:40;;;;;;;;;;;;;;;;;;5044884;28;88511;-55
2022/03/02 15:22:06;;;;;;;;;;;;;;;;;;5045915;28;86821;-54
2022/03/02 15:24:32;;;;;;;;;;;;;;;;;;5046129;27;86726;-55
2022/03/02 15:26:58;;;;;;;;;;;;;;;;;;5045709;28;87377;-57
2022/03/02 15:29:27;;;;;;;;;;;;;;;;;;5045734;28;86757;-55
2022/03/02 15:31:53;;;;;;;;;;;;;;;;;;5045842;27;87389;-57
2022/03/02 15:34:19;;;;;;;;;;;;;;;;;;5048210;28;87727;-58
2022/03/02 15:36:45;;;;;;;;;;;;;;;;;;5046275;27;86579;-57
2022/03/02 15:39:10;;;;;;;;;;;;;;;;;;5045328;28;88425;-58
2022/03/02 15:41:36;;;;;;;;;;;;;;;;;;5045723;28;86833;-57
2022/03/02 15:44:02;;;;;;;;;;;;;;;;;;5045941;27;87899;-59
2022/03/02 15:46:28;;;;;;;;;;;;;;;;;;5048812;28;87409;-54
2022/03/02 15:48:54;;;;;;;;;;;;;;;;;;5049188;28;87082;-58
2022/03/02 15:51:20;;;;;;;;;;;;;;;;;;5049228;27;87320;-58
2022/03/02 15:53:47;;;;;;;;;;;;;;;;;;5048627;28;87702;-55
2022/03/02 15:56:17;;;;;;;;;;;;;;;;;;5053206;28;86818;-55
2022/03/02 15:58:50;;;;;;;;;;;;;;;;;;5048906;28;88514;-54
2022/03/02 16:01:16;;;;;;;;;;;;;;;;;;5049443;28;86033;-58
2022/03/02 16:03:42;;;;;;;;;;;;;;;;;;5049090;27;86784;-55
2022/03/02 16:06:08;;;;;;;;;;;;;;;;;;5048440;28;88345;-58
2022/03/02 16:08:38;;;;;;;;;;;;;;;;;;5048204;28;87804;-54
2022/03/02 16:11:04;;;;;;;;;;;;;;;;;;5048645;27;88283;-55
2022/03/02 16:13:32;;;;;;;;;;;;;;;;;;5048251;28;88387;-57
2022/03/02 16:15:58;;;;;;;;;;;;;;;;;;5048564;28;86810;-54
2022/03/02 16:18:24;;;;;;;;;;;;;;;;;;5051211;27;87668;-57
2022/03/02 16:20:52;;;;;;;;;;;;;;;;;;5048618;27;87008;-56
2022/03/02 16:23:18;;;;;;;;;;;;;;;;;;5048594;27;87444;-54
2022/03/02 16:25:44;;;;;;;;;;;;;;;;;;5048765;28;86502;-55
2022/03/02 16:28:10;;;;;;;;;;;;;;;;;;5048443;28;86853;-54
2022/03/02 16:30:35;;;;;;;;;;;;;;;;;;5048369;27;87606;-57
2022/03/02 16:33:01;;;;;;;;;;;;;;;;;;5047172;28;89390;-58
2022/03/02 16:35:27;;;;;;;;;;;;;;;;;;5048556;28;86840;-54
2022/03/02 16:37:53;;;;;;;;;;;;;;;;;;5048269;28;87845;-56
2022/03/02 16:40:19;;;;;;;;;;;;;;;;;;5051062;28;86842;-55